createdAt,value
2019-05-01T00:00:50.740Z,26.37
2019-05-01T00:05:56.554Z,28.23
2019-05-01T00:10:58.635Z,25.97
2019-05-01T00:16:00.770Z,23.07
2019-05-01T00:21:02.852Z,22.63
2019-05-01T00:26:05.103Z,22.43
2019-05-01T00:31:07.422Z,23.30
2019-05-01T00:36:09.507Z,22.80
2019-05-01T00:41:11.589Z,22.07
2019-05-01T00:46:13.726Z,24.27
2019-05-01T00:51:15.860Z,23.60
2019-05-01T00:56:40.124Z,22.80
2019-05-01T01:02:00.308Z,24.80
2019-05-01T01:07:02.500Z,24.63
2019-05-01T01:12:04.559Z,26.47
2019-05-01T01:17:06.593Z,24.13
2019-05-01T01:22:08.642Z,25.87
2019-05-01T01:27:11.010Z,24.07
2019-05-01T01:32:13.193Z,25.40
2019-05-01T01:37:15.239Z,24.13
2019-05-01T01:42:17.997Z,23.83
2019-05-01T01:47:20.071Z,27.13
2019-05-01T01:52:22.676Z,27.80
2019-05-01T01:57:25.058Z,24.90
2019-05-01T02:02:35.935Z,27.53
2019-05-01T02:07:38.190Z,28.20
2019-05-01T02:12:40.622Z,26.90
2019-05-01T02:17:42.664Z,29.23
2019-05-01T02:22:44.750Z,25.60
2019-05-01T02:28:12.122Z,24.73
2019-05-01T02:33:27.660Z,25.23
2019-05-01T02:38:31.400Z,24.37
2019-05-01T02:43:37.217Z,22.10
2019-05-01T02:48:43.956Z,22.23
2019-05-01T02:53:47.736Z,23.13
2019-05-01T02:58:53.526Z,21.67
2019-05-01T03:03:56.936Z,21.00
2019-05-01T03:09:00.552Z,21.00
2019-05-01T03:14:03.489Z,21.20
2019-05-01T03:19:10.059Z,20.77
2019-05-01T03:24:16.950Z,20.20
2019-05-01T03:29:19.829Z,20.30
2019-05-01T03:34:22.189Z,20.37
2019-05-01T03:39:24.218Z,19.60
2019-05-01T03:44:26.442Z,18.20
2019-05-01T03:49:28.855Z,19.53
2019-05-01T03:54:32.152Z,19.57
2019-05-01T03:59:34.696Z,18.83
2019-05-01T04:04:37.085Z,21.23
2019-05-01T04:09:40.287Z,19.93
2019-05-01T04:14:42.631Z,20.07
2019-05-01T04:19:45.071Z,20.43
2019-05-01T04:24:48.085Z,21.93
2019-05-01T04:30:02.342Z,22.07
2019-05-01T04:35:19.366Z,21.47
2019-05-01T04:40:21.597Z,22.27
2019-05-01T04:45:24.358Z,21.70
2019-05-01T04:50:26.992Z,21.40
2019-05-01T04:55:30.491Z,22.80
2019-05-01T05:00:33.249Z,21.67
2019-05-01T05:05:35.500Z,22.40
2019-05-01T05:10:39.620Z,22.20
2019-05-01T05:15:50.781Z,22.83
2019-05-01T05:20:52.907Z,23.97
2019-05-01T05:25:55.326Z,24.47
2019-05-01T05:30:58.168Z,22.50
2019-05-01T05:36:02.727Z,23.87
2019-05-01T05:41:05.575Z,23.50
2019-05-01T05:46:07.867Z,26.40
2019-05-01T05:51:19.622Z,23.50
2019-05-01T05:56:49.080Z,23.30
2019-05-01T06:02:10.222Z,25.47
2019-05-01T06:07:32.452Z,22.33
2019-05-01T06:12:46.893Z,23.80
2019-05-01T06:18:22.658Z,22.10
2019-05-01T06:23:41.928Z,22.17
2019-05-01T06:28:44.063Z,22.23
2019-05-01T06:33:48.673Z,24.43
2019-05-01T06:38:50.394Z,23.40
2019-05-01T06:44:04.049Z,23.83
2019-05-01T06:49:30.970Z,23.27
2019-05-01T06:54:35.188Z,22.00
2019-05-01T06:59:38.830Z,24.43
2019-05-01T07:04:42.943Z,23.83
2019-05-01T07:09:49.227Z,23.13
2019-05-01T07:14:52.118Z,23.00
2019-05-01T07:20:19.064Z,23.00
2019-05-01T07:25:21.247Z,21.70
2019-05-01T07:30:49.803Z,21.73
2019-05-01T07:35:54.032Z,22.53
2019-05-01T07:40:58.851Z,22.57
2019-05-01T07:46:21.429Z,22.30
2019-05-01T07:51:23.716Z,21.97
2019-05-01T07:56:28.245Z,22.93
2019-05-01T08:01:49.910Z,22.03
2019-05-01T08:06:51.997Z,23.43
2019-05-01T08:11:53.987Z,23.93
2019-05-01T08:16:56.096Z,26.20
2019-05-01T08:22:13.635Z,26.43
2019-05-01T08:27:28.624Z,28.80
2019-05-01T08:32:42.106Z,30.43
2019-05-01T08:37:44.276Z,30.87
2019-05-01T08:42:46.867Z,31.37
2019-05-01T08:48:01.523Z,32.63
2019-05-01T08:53:04.149Z,36.40
2019-05-01T08:58:08.806Z,35.30
2019-05-01T09:03:13.547Z,34.77
2019-05-01T09:08:15.226Z,34.47
2019-05-01T09:13:18.950Z,34.40
2019-05-01T09:18:21.245Z,32.23
2019-05-01T09:23:23.399Z,34.30
2019-05-01T09:28:29.819Z,36.37
2019-05-01T09:33:32.125Z,31.97
2019-05-01T09:38:34.367Z,32.20
2019-05-01T09:43:37.082Z,29.50
2019-05-01T09:48:39.634Z,28.30
2019-05-01T09:53:55.884Z,28.57
2019-05-01T09:58:57.981Z,27.20
2019-05-01T10:04:00.226Z,26.93
2019-05-01T10:09:04.882Z,23.50
2019-05-01T10:14:06.976Z,16.97
2019-05-01T10:19:09.018Z,17.33
2019-05-01T10:24:11.077Z,16.27
2019-05-01T10:29:35.786Z,17.82
2019-05-01T10:34:51.110Z,20.30
2019-05-01T10:39:54.100Z,22.90
2019-05-01T10:44:57.536Z,22.57
2019-05-01T10:49:59.621Z,21.70
2019-05-01T10:55:03.754Z,22.20
2019-05-01T11:00:06.321Z,22.25
2019-05-01T11:05:08.941Z,20.47
2019-05-01T11:10:11.117Z,20.47
2019-05-01T11:15:14.497Z,16.48
2019-05-01T11:20:16.558Z,14.50
2019-05-01T11:25:20.185Z,15.20
2019-05-01T11:30:22.591Z,16.85
2019-05-01T11:35:41.994Z,15.93
2019-05-01T11:40:48.639Z,15.10
2019-05-01T11:45:51.347Z,15.60
2019-05-01T11:50:55.392Z,16.50
2019-05-01T11:55:57.473Z,16.97
2019-05-01T12:01:01.334Z,16.62
2019-05-01T12:06:03.410Z,17.63
2019-05-01T12:11:08.256Z,15.85
2019-05-01T12:16:17.637Z,13.95
2019-05-01T12:21:19.708Z,14.33
2019-05-01T12:26:21.800Z,14.93
2019-05-01T12:31:23.857Z,14.28
2019-05-01T12:36:36.133Z,8.88
2019-05-01T12:41:35.634Z,8.15
2019-05-01T12:46:44.170Z,9.00
2019-05-01T12:51:48.170Z,9.63
2019-05-01T12:56:53.803Z,9.28
2019-05-01T13:01:55.875Z,8.13
2019-05-01T13:06:59.133Z,8.55
2019-05-01T13:12:01.228Z,9.08
2019-05-01T13:17:03.241Z,8.93
2019-05-01T13:22:05.468Z,8.63
2019-05-01T13:27:13.714Z,9.50
2019-05-01T13:32:38.341Z,10.97
2019-05-01T13:37:40.508Z,11.20
2019-05-01T13:42:42.574Z,11.03
2019-05-01T13:47:44.931Z,11.17
2019-05-01T13:52:47.176Z,10.50
2019-05-01T13:57:49.219Z,9.48
2019-05-01T14:02:51.299Z,9.17
2019-05-01T14:07:53.424Z,8.88
2019-05-01T14:12:55.489Z,7.97
2019-05-01T14:17:57.582Z,8.43
2019-05-01T14:23:14.775Z,9.53
2019-05-01T14:28:16.902Z,7.70
2019-05-01T14:33:18.963Z,7.50
2019-05-01T14:38:21.028Z,8.10
2019-05-01T14:43:23.155Z,7.40
2019-05-01T14:48:25.486Z,7.57
2019-05-01T14:53:27.627Z,7.50
2019-05-01T14:58:29.698Z,7.70
2019-05-01T15:03:31.887Z,8.83
2019-05-01T15:08:33.975Z,8.03
2019-05-01T15:13:48.748Z,7.30
2019-05-01T15:19:02.751Z,7.33
2019-05-01T15:24:04.809Z,6.33
2019-05-01T15:29:06.864Z,6.70
2019-05-01T15:34:08.932Z,6.63
2019-05-01T15:39:17.409Z,6.63
2019-05-01T15:44:32.120Z,6.30
2019-05-01T15:49:34.252Z,6.73
2019-05-01T15:54:36.339Z,6.70
2019-05-01T15:59:38.523Z,6.97
2019-05-01T16:04:40.748Z,6.77
2019-05-01T16:09:42.791Z,6.70
2019-05-01T16:14:48.994Z,7.00
2019-05-01T16:19:51.123Z,7.00
2019-05-01T16:24:53.233Z,5.77
2019-05-01T16:29:55.284Z,5.50
2019-05-01T16:34:57.362Z,5.80
2019-05-01T16:40:09.002Z,6.73
2019-05-01T16:45:11.867Z,7.00
2019-05-01T16:50:14.301Z,6.47
2019-05-01T16:55:17.043Z,7.20
2019-05-01T17:00:26.379Z,6.90
2019-05-01T17:05:46.391Z,7.10
2019-05-01T17:10:49.275Z,7.63
2019-05-01T17:15:51.316Z,7.37
2019-05-01T17:20:53.431Z,7.37
2019-05-01T17:25:55.515Z,6.87
2019-05-01T17:31:00.250Z,7.73
2019-05-01T17:36:02.362Z,7.93
2019-05-01T17:41:04.617Z,8.10
2019-05-01T17:46:10.882Z,8.50
2019-05-01T17:51:10.798Z,9.67
2019-05-01T17:56:15.356Z,9.53
2019-05-01T18:01:37.437Z,16.23
2019-05-01T18:06:46.568Z,19.20
2019-05-01T18:11:47.432Z,9.87
2019-05-01T18:16:50.430Z,10.33
2019-05-01T18:22:02.290Z,10.33
2019-05-01T18:27:19.148Z,9.53
2019-05-01T18:32:27.582Z,10.80
2019-05-01T18:37:36.359Z,13.07
2019-05-01T18:42:38.558Z,14.80
2019-05-01T18:47:40.632Z,11.57
2019-05-01T18:52:42.667Z,12.23
2019-05-01T18:57:44.792Z,13.00
2019-05-01T19:02:46.902Z,12.20
2019-05-01T19:07:49.138Z,12.53
2019-05-01T19:12:51.238Z,12.63
2019-05-01T19:17:53.388Z,13.60
2019-05-01T19:22:55.455Z,13.60
2019-05-01T19:27:57.574Z,13.27
2019-05-01T19:32:59.643Z,12.37
2019-05-01T19:38:01.859Z,13.63
2019-05-01T19:43:04.102Z,14.30
2019-05-01T19:48:06.509Z,15.27
2019-05-01T19:53:10.158Z,15.67
2019-05-01T19:58:12.566Z,15.20
2019-05-01T20:03:14.985Z,15.73
2019-05-01T20:08:17.072Z,16.97
2019-05-01T20:13:19.171Z,17.00
2019-05-01T20:18:21.268Z,17.17
2019-05-01T20:23:26.262Z,17.33
2019-05-01T20:28:28.430Z,19.93
2019-05-01T20:33:33.424Z,21.47
2019-05-01T20:38:34.559Z,19.67
2019-05-01T20:43:38.159Z,22.20
2019-05-01T20:48:40.653Z,19.43
2019-05-01T20:53:42.797Z,20.13
2019-05-01T20:58:45.116Z,20.20
2019-05-01T21:03:57.291Z,22.17
2019-05-01T21:09:15.856Z,21.97
2019-05-01T21:14:22.750Z,19.27
2019-05-01T21:19:23.357Z,20.67
2019-05-01T21:24:26.042Z,22.53
2019-05-01T21:29:28.204Z,22.27
2019-05-01T21:34:30.289Z,21.57
2019-05-01T21:39:33.482Z,21.27
2019-05-01T21:44:35.563Z,22.00
2019-05-01T21:49:37.625Z,21.27
2019-05-01T21:54:39.762Z,21.73
2019-05-01T21:59:44.691Z,22.10
2019-05-01T22:04:45.855Z,22.57
2019-05-01T22:09:50.571Z,25.17
2019-05-01T22:14:58.549Z,24.63
2019-05-01T22:20:00.857Z,25.40
2019-05-01T22:25:29.521Z,24.73
2019-05-01T22:30:42.239Z,24.50
2019-05-01T22:35:45.994Z,22.73
2019-05-01T22:41:22.869Z,25.03
2019-05-01T22:46:28.622Z,24.03
2019-05-01T22:51:30.712Z,25.23
2019-05-01T22:56:32.789Z,24.47
2019-05-01T23:01:35.176Z,25.67
2019-05-01T23:06:41.862Z,26.47
2019-05-01T23:11:45.194Z,24.53
2019-05-01T23:16:58.663Z,23.67
2019-05-01T23:21:59.352Z,28.07
2019-05-01T23:27:01.435Z,27.03
2019-05-01T23:32:04.701Z,25.30
2019-05-01T23:37:06.817Z,26.30
2019-05-01T23:42:08.911Z,25.80
2019-05-01T23:47:10.982Z,26.27
2019-05-01T23:52:13.217Z,26.73
2019-05-01T23:57:18.800Z,24.50
